Time;durP1;ratioP1;P1;durP2;ratioP2;P2;SDS_P1;SDS_P2;PMS_P1;PMS_P2;Temp;Humidity;BMP_temperature;BMP_pressure;BME280_temperature;BME280_humidity;BME280_pressure;Samples;Min_cycle;Max_cycle;Signal;HPM_P1;HPM_P2
2023/08/18 00:02:09;;;;;;;1999.90;999.90;;;;;;;19.41;100.00;95411.78;5004420;28;20195;-60
2023/08/18 00:04:34;;;;;;;1999.90;999.90;;;;;;;19.42;100.00;95407.78;5004322;28;20215;-60
2023/08/18 00:07:00;;;;;;;1999.90;999.90;;;;;;;19.45;100.00;95417.97;5004026;28;20204;-60
2023/08/18 00:09:25;;;;;;;1999.90;999.90;;;;;;;19.49;100.00;95420.59;5003722;28;20203;-60
2023/08/18 00:11:50;;;;;;;1999.90;999.90;;;;;;;19.49;100.00;95417.81;5004326;28;20271;-60
2023/08/18 00:14:16;;;;;;;1999.90;999.90;;;;;;;19.51;100.00;95409.81;5007934;28;20200;-60
2023/08/18 00:16:41;;;;;;;1999.90;999.90;;;;;;;19.48;100.00;95405.19;5008261;28;20246;-60
2023/08/18 00:19:07;;;;;;;1999.90;999.90;;;;;;;19.52;100.00;95405.03;5007793;28;20216;-60
2023/08/18 00:21:32;;;;;;;1999.90;999.90;;;;;;;19.48;100.00;95394.09;5008114;28;20198;-60
2023/08/18 00:23:57;;;;;;;1999.90;999.90;;;;;;;19.51;100.00;95387.63;5007495;28;20397;-60
2023/08/18 00:26:23;;;;;;;1999.90;999.90;;;;;;;19.49;100.00;95373.50;5008216;28;20245;-60
2023/08/18 00:28:48;;;;;;;1999.90;999.90;;;;;;;19.42;100.00;95373.78;5007916;28;20196;-60
2023/08/18 00:31:14;;;;;;;1999.90;999.90;;;;;;;19.38;100.00;95373.94;5007584;28;20195;-62
2023/08/18 00:33:39;;;;;;;1999.90;999.90;;;;;;;19.34;100.00;95361.47;5007308;28;20192;-60
2023/08/18 00:36:04;;;;;;;1999.90;999.90;;;;;;;19.29;100.00;95353.75;5007387;28;20267;-60
2023/08/18 00:38:30;;;;;;;1999.90;999.90;;;;;;;19.24;100.00;95340.50;5007207;28;20287;-60
2023/08/18 00:40:56;;;;;;;1999.90;999.90;;;;;;;19.18;100.00;95334.03;5007197;28;20264;-60
2023/08/18 00:43:22;;;;;;;1999.90;999.90;;;;;;;19.13;100.00;95329.88;5007382;28;20210;-60
2023/08/18 00:45:49;;;;;;;1999.90;999.90;;;;;;;19.08;100.00;95322.19;5007160;28;20203;-60
2023/08/18 00:48:16;;;;;;;1999.90;999.90;;;;;;;19.09;100.00;95314.66;5007026;28;20207;-61
2023/08/18 00:50:42;;;;;;;1999.90;999.90;;;;;;;19.09;100.00;95309.13;5007080;28;20196;-60
2023/08/18 00:53:08;;;;;;;1999.90;999.90;;;;;;;19.06;100.00;95298.97;5007096;28;20196;-61
2023/08/18 00:55:34;;;;;;;1999.90;999.90;;;;;;;19.09;100.00;95293.25;5007064;28;20176;-60
2023/08/18 00:58:02;;;;;;;1999.90;999.90;;;;;;;19.11;100.00;95292.78;5006881;28;20212;-60
2023/08/18 01:00:27;;;;;;;1999.90;999.90;;;;;;;19.10;100.00;95277.41;5007473;28;20259;-60
2023/08/18 01:02:53;;;;;;;1999.90;999.90;;;;;;;19.03;100.00;95277.72;5007009;28;20202;-60
2023/08/18 01:05:19;;;;;;;1999.90;999.90;;;;;;;19.00;100.00;95268.34;5007190;28;20381;-60
2023/08/18 01:07:45;;;;;;;1999.90;999.90;;;;;;;18.93;100.00;95263.09;5006755;28;20227;-60
2023/08/18 01:10:11;;;;;;;1999.90;999.90;;;;;;;18.90;100.00;95249.41;5006979;28;20199;-60
2023/08/18 01:12:51;;;;;;;1999.90;999.90;;;;;;;18.90;100.00;95243.88;5006854;28;20226;-60
2023/08/18 01:15:20;;;;;;;1999.90;999.90;;;;;;;18.89;100.00;95236.81;5007141;28;20199;-60
2023/08/18 01:17:57;;;;;;;1999.90;999.90;;;;;;;18.81;100.00;95230.03;5006459;28;20212;-60
2023/08/18 01:20:23;;;;;;;1999.90;999.90;;;;;;;18.81;100.00;95221.75;5007047;28;20339;-60
2023/08/18 01:23:02;;;;;;;1999.90;999.90;;;;;;;18.81;100.00;95216.19;5006928;28;20226;-60
2023/08/18 01:25:28;;;;;;;1999.90;999.90;;;;;;;18.79;100.00;95207.56;5005846;28;20207;-60
2023/08/18 01:27:55;;;;;;;1999.90;999.90;;;;;;;18.74;100.00;95205.44;5006395;28;20210;-60
2023/08/18 01:30:23;;;;;;;1999.90;999.90;;;;;;;18.75;100.00;95204.19;5006348;28;20270;-60
2023/08/18 01:33:14;;;;;;;1999.90;999.90;;;;;;;18.76;100.00;95197.44;5006303;28;20391;-60
2023/08/18 01:35:42;;;;;;;1999.90;999.90;;;;;;;18.79;100.00;95199.28;4999617;28;20223;-60
2023/08/18 01:38:11;;;;;;;1999.90;999.90;;;;;;;18.79;100.00;95182.66;5005994;28;20223;-60
2023/08/18 01:40:39;;;;;;;1999.90;999.90;;;;;;;18.80;100.00;95189.78;5006318;28;20184;-60
2023/08/18 01:43:04;;;;;;;1999.90;999.90;;;;;;;18.83;100.00;95188.84;5006665;28;20203;-60
2023/08/18 01:45:30;;;;;;;1999.90;999.90;;;;;;;18.76;100.00;95184.38;5006654;28;20204;-60
2023/08/18 01:47:55;;;;;;;1999.90;999.90;;;;;;;18.79;100.00;95188.22;5006212;28;20199;-59
2023/08/18 01:50:21;;;;;;;1999.90;999.90;;;;;;;18.81;100.00;95180.22;5006418;28;20199;-60
2023/08/18 01:52:46;;;;;;;1999.90;999.90;;;;;;;18.73;100.00;95176.22;5005950;28;20199;-59
2023/08/18 01:55:12;;;;;;;1999.90;999.90;;;;;;;18.70;100.00;95171.63;5006440;28;20271;-59
2023/08/18 01:57:37;;;;;;;1999.90;999.90;;;;;;;18.71;100.00;95156.53;5005867;28;20227;-59
2023/08/18 02:00:03;;;;;;;1999.90;999.90;;;;;;;18.63;100.00;95152.56;5005917;28;20270;-59
2023/08/18 02:02:29;;;;;;;1999.90;999.90;;;;;;;18.65;100.00;95139.03;5005757;28;20250;-60
2023/08/18 02:04:57;;;;;;;1999.90;999.90;;;;;;;18.64;100.00;95131.94;5005671;28;20230;-60
2023/08/18 02:07:23;;;;;;;1999.90;999.90;;;;;;;18.61;100.00;95135.66;5005669;28;20202;-60
2023/08/18 02:09:48;;;;;;;1999.90;999.90;;;;;;;18.61;100.00;95135.66;5005703;28;20199;-60
2023/08/18 02:12:14;;;;;;;1999.90;999.90;;;;;;;18.58;100.00;95133.81;5006005;28;20207;-60
2023/08/18 02:14:39;;;;;;;1999.90;999.90;;;;;;;18.57;100.00;95129.50;5005859;28;20203;-59
2023/08/18 02:17:04;;;;;;;1999.90;999.90;;;;;;;18.50;100.00;95118.75;5005508;28;20250;-60
2023/08/18 02:19:30;;;;;;;1999.90;999.90;;;;;;;18.47;100.00;95111.38;5005280;28;20250;-60
2023/08/18 02:21:55;;;;;;;1999.90;999.90;;;;;;;18.43;100.00;95099.69;5005359;28;20196;-59
2023/08/18 02:24:20;;;;;;;1999.90;999.90;;;;;;;18.41;100.00;95096.63;5005796;28;20223;-60
2023/08/18 02:26:46;;;;;;;1999.90;999.90;;;;;;;18.36;100.00;95094.47;5005593;28;20203;-61
2023/08/18 02:29:11;;;;;;;1999.90;999.90;;;;;;;18.32;100.00;95083.53;5005389;28;20526;-60
2023/08/18 02:31:36;;;;;;;1999.90;999.90;;;;;;;18.30;100.00;95074.16;5005171;28;20218;-60
2023/08/18 02:34:02;;;;;;;1999.90;999.90;;;;;;;18.32;100.00;95074.47;5005385;28;20187;-60
2023/08/18 02:36:28;;;;;;;1999.90;999.90;;;;;;;18.23;100.00;95074.47;5005301;28;20235;-60
2023/08/18 02:38:53;;;;;;;1999.90;999.90;;;;;;;18.37;100.00;95066.38;5004951;28;20208;-60
2023/08/18 02:41:18;;;;;;;1999.90;999.90;;;;;;;18.40;100.00;95070.19;5004900;28;20242;-60
2023/08/18 02:43:46;;;;;;;1999.90;999.90;;;;;;;18.43;100.00;95074.81;5005015;28;20199;-60
2023/08/18 02:46:11;;;;;;;1999.90;999.90;;;;;;;18.40;100.00;95086.78;5004912;28;20192;-60
2023/08/18 02:48:37;;;;;;;1999.90;999.90;;;;;;;18.37;100.00;95096.00;5005201;28;20267;-59
2023/08/18 02:51:07;;;;;;;1999.90;999.90;;;;;;;18.38;100.00;95108.59;5005262;28;20274;-59
2023/08/18 02:53:33;;;;;;;1999.90;999.90;;;;;;;18.35;100.00;95115.03;5004819;28;20230;-59
2023/08/18 02:55:59;;;;;;;1999.90;999.90;;;;;;;18.31;100.00;95114.41;5004665;28;20196;-59
2023/08/18 02:58:27;;;;;;;1999.90;999.90;;;;;;;18.27;100.00;95120.09;5004986;28;20282;-59
2023/08/18 03:00:52;;;;;;;1999.90;999.90;;;;;;;18.29;100.00;95123.16;5004867;28;20204;-59
2023/08/18 03:03:18;;;;;;;1999.90;999.90;;;;;;;18.30;100.00;95121.16;5004505;28;20206;-60
2023/08/18 03:05:45;;;;;;;1999.90;999.90;;;;;;;18.25;100.00;95125.28;5005225;28;20203;-59
2023/08/18 03:08:11;;;;;;;1999.90;999.90;;;;;;;18.27;100.00;95130.38;5004787;28;20200;-60
2023/08/18 03:10:36;;;;;;;1999.90;999.90;;;;;;;18.25;100.00;95135.59;5004496;28;20180;-60
2023/08/18 03:13:03;;;;;;;1999.90;999.90;;;;;;;18.27;100.00;95135.91;5005191;28;20211;-59
2023/08/18 03:15:29;;;;;;;1999.90;999.90;;;;;;;18.26;100.00;95134.38;5005113;28;20420;-60
2023/08/18 03:17:55;;;;;;;1999.90;999.90;;;;;;;18.24;100.00;95142.34;5004369;28;20211;-60
2023/08/18 03:20:21;;;;;;;1999.90;999.90;;;;;;;18.21;100.00;95149.56;5004402;28;20247;-60
2023/08/18 03:22:46;;;;;;;1999.90;999.90;;;;;;;18.21;100.00;95148.81;5004437;28;20211;-59
2023/08/18 03:25:11;;;;;;;1999.90;999.90;;;;;;;18.18;100.00;95133.88;5004456;28;20207;-59
2023/08/18 03:27:37;;;;;;;1999.90;999.90;;;;;;;18.17;100.00;95139.91;5004812;28;20199;-59
2023/08/18 03:30:03;;;;;;;1999.90;999.90;;;;;;;18.16;100.00;95146.63;5004388;28;20202;-59
2023/08/18 03:32:29;;;;;;;1999.90;999.90;;;;;;;18.14;100.00;95154.63;5004389;28;20196;-60
2023/08/18 03:34:54;;;;;;;1999.90;999.90;;;;;;;18.11;100.00;95150.78;5004759;28;20223;-60
2023/08/18 03:37:20;;;;;;;1999.90;999.90;;;;;;;18.08;100.00;95150.91;5004224;28;20200;-60
2023/08/18 03:39:45;;;;;;;1999.90;999.90;;;;;;;18.05;100.00;95132.47;5004703;28;20195;-60
2023/08/18 03:42:11;;;;;;;1999.90;999.90;;;;;;;18.03;100.00;95138.47;5004903;28;20180;-59
2023/08/18 03:44:37;;;;;;;1999.90;999.90;;;;;;;18.00;100.00;95133.09;5003905;28;20234;-60
2023/08/18 03:47:02;;;;;;;1999.90;999.90;;;;;;;17.98;100.00;95132.78;5004545;28;20211;-60
2023/08/18 03:49:28;;;;;;;1999.90;999.90;;;;;;;17.97;100.00;95123.72;5008896;28;20207;-60
2023/08/18 03:51:53;;;;;;;1999.90;999.90;;;;;;;17.94;100.00;95118.34;5008299;28;20199;-59
2023/08/18 03:54:19;;;;;;;1999.90;999.90;;;;;;;17.91;100.00;95108.19;5008517;28;20214;-60
2023/08/18 03:56:44;;;;;;;1999.90;999.90;;;;;;;17.85;100.00;95099.72;5007994;28;20239;-60
2023/08/18 03:59:09;;;;;;;1999.90;999.90;;;;;;;17.80;100.00;95096.81;5008113;28;20216;-60
2023/08/18 04:01:35;;;;;;;1999.90;999.90;;;;;;;17.81;100.00;95090.06;5007898;28;20267;-60
2023/08/18 04:04:00;;;;;;;1999.90;999.90;;;;;;;17.80;100.00;95085.75;5007942;28;20493;-59
2023/08/18 04:06:25;;;;;;;1999.90;999.90;;;;;;;17.78;100.00;95077.16;5007894;28;20192;-59
2023/08/18 04:09:06;;;;;;;1999.90;999.90;;;;;;;17.75;100.00;95078.06;5007839;28;20275;-59
2023/08/18 04:11:33;;;;;;;1999.90;999.90;;;;;;;17.77;100.00;95070.13;5007759;28;20499;-59
2023/08/18 04:13:59;;;;;;;1999.90;999.90;;;;;;;17.80;100.00;95069.94;5008251;28;20202;-59
2023/08/18 04:16:24;;;;;;;1999.90;999.90;;;;;;;17.82;100.00;95062.00;5008140;28;20196;-59
2023/08/18 04:18:50;;;;;;;1999.90;999.90;;;;;;;17.84;100.00;95064.28;5007611;28;20203;-60
2023/08/18 04:21:15;;;;;;;1999.90;999.90;;;;;;;17.82;100.00;95066.75;5008345;28;20196;-60
2023/08/18 04:23:40;;;;;;;1999.90;999.90;;;;;;;17.86;100.00;95061.84;5007529;28;20199;-59
2023/08/18 04:26:06;;;;;;;1999.90;999.90;;;;;;;17.93;100.00;95065.06;5007698;28;20195;-60
2023/08/18 04:28:31;;;;;;;1999.90;999.90;;;;;;;17.99;100.00;95074.28;5007621;28;20206;-59
2023/08/18 04:30:58;;;;;;;1999.90;999.90;;;;;;;18.08;100.00;95090.13;5007882;28;20266;-59
2023/08/18 04:33:23;;;;;;;1999.90;999.90;;;;;;;18.15;100.00;95103.63;5007390;28;20266;-59
2023/08/18 04:35:52;;;;;;;1999.90;999.90;;;;;;;18.25;100.00;95116.25;5007237;28;20203;-60
2023/08/18 04:38:17;;;;;;;1999.90;999.90;;;;;;;18.40;100.00;95131.03;5007331;28;20527;-60
2023/08/18 04:40:42;;;;;;;1999.90;999.90;;;;;;;18.61;100.00;95157.78;5007343;28;20175;-59
2023/08/18 04:43:08;;;;;;;1999.90;999.90;;;;;;;18.68;100.00;95183.13;5007539;28;20203;-61
2023/08/18 04:45:34;;;;;;;1999.90;999.90;;;;;;;18.79;100.00;95210.34;5007690;28;20204;-60
2023/08/18 04:48:00;;;;;;;1999.90;999.90;;;;;;;18.92;100.00;95238.66;5007584;28;20200;-60
2023/08/18 04:50:25;;;;;;;1999.90;999.90;;;;;;;18.96;100.00;95242.81;5006873;28;20203;-60
2023/08/18 04:52:50;;;;;;;1999.90;999.90;;;;;;;19.01;100.00;95263.56;5007069;28;20196;-60
2023/08/18 04:55:16;;;;;;;1999.90;999.90;;;;;;;19.05;100.00;95269.75;5007086;28;20263;-59
2023/08/18 04:57:41;;;;;;;1999.90;999.90;;;;;;;19.10;100.00;95278.19;5006906;28;20215;-60
2023/08/18 05:00:08;;;;;;;1999.90;999.90;;;;;;;19.18;100.00;95281.41;5006762;28;20196;-59
2023/08/18 05:02:33;;;;;;;1999.90;999.90;;;;;;;19.44;100.00;95294.53;5006795;28;20200;-60
2023/08/18 05:04:58;;;;;;;1999.90;999.90;;;;;;;19.72;100.00;95311.91;5006868;28;20259;-59
2023/08/18 05:07:24;;;;;;;1999.90;999.90;;;;;;;19.87;100.00;95331.41;5006892;28;20199;-60
2023/08/18 05:09:49;;;;;;;1999.90;999.90;;;;;;;19.94;100.00;95348.50;5007153;28;20496;-61
2023/08/18 05:12:15;;;;;;;1999.90;999.90;;;;;;;19.98;100.00;95365.75;5006972;28;20176;-60
2023/08/18 05:14:40;;;;;;;1999.90;999.90;;;;;;;20.00;100.00;95376.38;5007046;28;20206;-60
2023/08/18 05:17:05;;;;;;;1999.90;999.90;;;;;;;19.81;100.00;95380.41;5006916;28;20203;-59
2023/08/18 05:19:31;;;;;;;1999.90;999.90;;;;;;;19.92;100.00;95375.16;5006823;28;20216;-59
2023/08/18 05:21:56;;;;;;;1999.90;999.90;;;;;;;20.08;100.00;95372.84;5006470;28;20259;-59
2023/08/18 05:24:21;;;;;;;1999.90;999.90;;;;;;;20.21;100.00;95383.78;5006394;28;20302;-60
2023/08/18 05:26:47;;;;;;;1999.90;999.90;;;;;;;20.29;100.00;95380.19;5006525;28;20266;-60
2023/08/18 05:29:12;;;;;;;1999.90;999.90;;;;;;;20.52;100.00;95376.75;5006487;28;20379;-60
2023/08/18 05:31:37;;;;;;;1999.90;999.90;;;;;;;20.25;100.00;95390.69;5006754;28;20409;-59
2023/08/18 05:34:03;;;;;;;1999.90;999.90;;;;;;;20.60;100.00;95380.72;5006214;28;20196;-59
2023/08/18 05:36:29;;;;;;;1999.90;999.90;;;;;;;20.81;100.00;95399.16;5006482;28;20188;-61
2023/08/18 05:38:55;;;;;;;1999.90;999.90;;;;;;;20.94;100.00;95390.66;5006541;28;20218;-60
2023/08/18 05:41:20;;;;;;;1999.90;999.90;;;;;;;21.25;100.00;95404.97;5006078;28;20195;-60
2023/08/18 05:43:46;;;;;;;1999.90;999.90;;;;;;;21.50;100.00;95416.41;5006249;28;20207;-59
2023/08/18 05:46:11;;;;;;;1999.90;999.90;;;;;;;21.85;100.00;95413.88;5006107;28;20196;-59
2023/08/18 05:48:37;;;;;;;1999.90;999.90;;;;;;;22.20;100.00;95435.03;5006079;28;20259;-59
2023/08/18 05:51:02;;;;;;;1999.90;999.90;;;;;;;22.27;100.00;95442.22;5005861;28;20227;-59
2023/08/18 05:53:30;;;;;;;1999.90;999.90;;;;;;;22.60;100.00;95440.06;5005842;28;20203;-59
2023/08/18 05:55:55;;;;;;;1999.90;999.90;;;;;;;22.88;100.00;95448.91;5005846;28;20219;-60
2023/08/18 05:58:20;;;;;;;1999.90;999.90;;;;;;;23.31;100.00;95464.81;5005878;28;20208;-60
2023/08/18 06:00:49;;;;;;;1999.90;999.90;;;;;;;23.51;100.00;95462.06;5005840;28;20200;-59
2023/08/18 06:03:16;;;;;;;1999.90;999.90;;;;;;;23.91;100.00;95462.88;5005884;28;20247;-60
2023/08/18 06:05:43;;;;;;;1999.90;999.90;;;;;;;24.20;100.00;95467.56;5005872;28;20199;-60
2023/08/18 06:08:09;;;;;;;1999.90;999.90;;;;;;;24.50;100.00;95468.91;5005715;28;20195;-59
2023/08/18 06:10:34;;;;;;;1999.90;999.90;;;;;;;24.60;100.00;95461.91;5005439;28;20223;-60
2023/08/18 06:12:59;;;;;;;1999.90;999.90;;;;;;;24.26;100.00;95465.59;5005888;28;20179;-59
2023/08/18 06:15:25;;;;;;;1999.90;999.90;;;;;;;24.39;100.00;95475.16;5005608;28;20203;-59
2023/08/18 06:17:50;;;;;;;1999.90;999.90;;;;;;;25.04;100.00;95473.53;5005949;28;20238;-60
2023/08/18 06:20:16;;;;;;;1999.90;999.90;;;;;;;24.77;100.00;95477.59;5005938;28;20223;-59
2023/08/18 06:22:41;;;;;;;1999.90;999.90;;;;;;;24.65;100.00;95480.78;5005241;28;20277;-59
2023/08/18 06:25:07;;;;;;;1999.90;999.90;;;;;;;24.58;100.00;95489.59;5005742;28;20216;-59
2023/08/18 06:27:33;;;;;;;1999.90;999.90;;;;;;;25.16;100.00;95491.91;5005228;28;20246;-59
2023/08/18 06:29:59;;;;;;;1999.90;999.90;;;;;;;25.05;100.00;95486.22;5005200;28;20199;-59
2023/08/18 06:32:24;;;;;;;1999.90;999.90;;;;;;;25.95;100.00;95484.38;5005226;28;20196;-59
2023/08/18 06:34:50;;;;;;;1999.90;999.90;;;;;;;26.01;100.00;95478.81;5005323;28;20199;-60
2023/08/18 06:37:16;;;;;;;1999.90;999.90;;;;;;;26.38;100.00;95483.03;5005591;28;20202;-60
2023/08/18 06:39:41;;;;;;;1999.90;999.90;;;;;;;26.47;100.00;95485.59;5004907;28;20207;-59
2023/08/18 06:42:06;;;;;;;1999.90;999.90;;;;;;;25.67;100.00;95491.06;5005015;28;20202;-61
2023/08/18 06:44:34;;;;;;;1999.90;999.90;;;;;;;26.64;100.00;95478.06;5005208;28;20226;-60
2023/08/18 06:46:59;;;;;;;1999.90;999.90;;;;;;;26.40;100.00;95491.69;5005229;28;20227;-59
2023/08/18 06:49:24;;;;;;;1999.90;999.90;;;;;;;28.04;100.00;95479.06;5004976;28;20258;-59
2023/08/18 06:51:49;;;;;;;1999.90;999.90;;;;;;;28.51;100.00;95481.97;5004791;28;20238;-59
2023/08/18 06:54:15;;;;;;;1999.90;999.90;;;;;;;28.15;100.00;95486.69;5004637;28;20246;-60
2023/08/18 06:56:40;;;;;;;1999.90;999.90;;;;;;;27.44;100.00;95482.72;5004808;28;20196;-59
2023/08/18 06:59:06;;;;;;;1999.90;999.90;;;;;;;28.82;100.00;95489.97;5004767;28;20215;-59
2023/08/18 07:01:31;;;;;;;1999.90;999.90;;;;;;;27.64;100.00;95485.25;5004568;28;20200;-60
2023/08/18 07:03:56;;;;;;;1999.90;999.90;;;;;;;28.62;100.00;95487.53;5004459;28;20263;-60
2023/08/18 07:06:22;;;;;;;1999.90;999.90;;;;;;;28.93;100.00;95490.69;5004475;28;20196;-60
2023/08/18 07:08:47;;;;;;;1999.90;999.90;;;;;;;27.77;100.00;95490.34;5004753;28;20203;-59
2023/08/18 07:11:13;;;;;;;1999.90;999.90;;;;;;;28.13;100.00;95492.84;5004713;28;20263;-59
2023/08/18 07:13:39;;;;;;;1999.90;999.90;;;;;;;28.65;100.00;95490.06;5004402;28;20237;-60
2023/08/18 07:16:04;;;;;;;1999.90;999.90;;;;;;;28.72;100.00;95489.53;5004684;28;20187;-60
2023/08/18 07:18:29;;;;;;;1999.90;999.90;;;;;;;29.35;100.00;95492.19;5004571;28;20223;-59
2023/08/18 07:20:57;;;;;;;1999.90;999.90;;;;;;;29.16;100.00;95496.94;5004547;28;20239;-57
2023/08/18 07:23:22;;;;;;;1999.90;999.90;;;;;;;28.55;100.00;95488.09;5004021;28;20199;-58
2023/08/18 07:25:48;;;;;;;1999.90;999.90;;;;;;;30.39;100.00;95481.94;5004782;28;20195;-56
2023/08/18 07:28:13;;;;;;;1999.90;999.90;;;;;;;31.33;100.00;95481.44;5004532;28;20231;-57
2023/08/18 07:30:38;;;;;;;1999.90;999.90;;;;;;;31.90;100.00;95489.19;5004302;28;20199;-57
2023/08/18 07:33:04;;;;;;;1999.90;999.90;;;;;;;31.90;100.00;95492.03;5004313;28;20210;-57
2023/08/18 07:35:29;;;;;;;1999.90;999.90;;;;;;;31.23;100.00;95490.81;5004359;28;20196;-57
2023/08/18 07:37:56;;;;;;;1999.90;999.90;;;;;;;30.87;100.00;95495.97;5004137;28;20219;-57
2023/08/18 07:40:21;;;;;;;1999.90;999.90;;;;;;;30.91;100.00;95494.34;5004259;28;20202;-58
2023/08/18 07:42:47;;;;;;;1999.90;999.90;;;;;;;30.46;100.00;95498.28;5004847;28;20235;-58
2023/08/18 07:45:12;;;;;;;1999.90;999.90;;;;;;;30.71;100.00;95491.31;5004079;28;20255;-60
2023/08/18 07:47:38;;;;;;;1999.90;999.90;;;;;;;31.17;100.00;95493.72;5004099;28;20235;-60
2023/08/18 07:50:07;;;;;;;1999.90;999.90;;;;;;;31.46;100.00;95498.41;5004276;28;20206;-59
2023/08/18 07:52:33;;;;;;;1999.90;999.90;;;;;;;31.42;100.00;95495.16;5004101;28;20203;-60
2023/08/18 07:54:58;;;;;;;1999.90;999.90;;;;;;;32.01;100.00;95503.13;5003884;28;20274;-59
2023/08/18 07:57:23;;;;;;;1999.90;999.90;;;;;;;31.64;100.00;95503.25;5004198;28;20199;-59
2023/08/18 07:59:49;;;;;;;1999.90;999.90;;;;;;;31.09;100.00;95504.09;5004117;28;20225;-59
2023/08/18 08:02:14;;;;;;;1999.90;999.90;;;;;;;31.29;100.00;95500.75;5004364;28;20199;-58
2023/08/18 08:04:39;;;;;;;1999.90;999.90;;;;;;;32.31;98.21;95503.63;5003989;28;20203;-58
2023/08/18 08:07:05;;;;;;;1999.90;999.90;;;;;;;32.29;100.00;95494.88;5004091;28;20203;-59
2023/08/18 08:09:30;;;;;;;1999.90;999.90;;;;;;;32.29;97.43;95500.53;5004446;28;20199;-59
2023/08/18 08:11:55;;;;;;;1999.90;999.90;;;;;;;31.92;100.00;95503.56;5003791;28;20263;-59
2023/08/18 08:14:21;;;;;;;1999.90;999.90;;;;;;;31.96;100.00;95506.84;5003891;28;20203;-60
2023/08/18 08:16:46;;;;;;;1999.90;999.90;;;;;;;32.39;100.00;95498.06;5003818;28;20194;-59
2023/08/18 08:19:13;;;;;;;1999.90;999.90;;;;;;;32.77;100.00;95502.91;5003676;28;20270;-60
2023/08/18 08:21:40;;;;;;;1999.90;999.90;;;;;;;32.87;97.58;95504.03;5003701;28;20199;-59
2023/08/18 08:24:05;;;;;;;1999.90;999.90;;;;;;;32.89;98.95;95495.00;5003740;28;20200;-59
2023/08/18 08:26:31;;;;;;;1999.90;999.90;;;;;;;31.61;100.00;95493.03;5003689;28;20196;-59
2023/08/18 08:28:56;;;;;;;1999.90;999.90;;;;;;;31.95;100.00;95496.84;5003629;28;20203;-59
2023/08/18 08:31:21;;;;;;;1999.90;999.90;;;;;;;32.40;100.00;95491.88;5003763;28;20199;-59
2023/08/18 08:33:47;;;;;;;1999.90;999.90;;;;;;;32.99;99.91;95493.97;5005176;28;20274;-59
2023/08/18 08:36:12;;;;;;;1999.90;999.90;;;;;;;33.50;91.30;95500.78;5007175;28;20199;-60
2023/08/18 08:38:38;;;;;;;1999.90;999.90;;;;;;;33.77;91.94;95496.50;5007170;28;20267;-59
2023/08/18 08:41:04;;;;;;;1999.90;999.90;;;;;;;33.95;86.67;95499.69;5007236;28;20200;-59
2023/08/18 08:43:29;;;;;;;1999.90;999.90;;;;;;;34.13;86.33;95501.53;5007363;28;20200;-59
2023/08/18 08:45:58;;;;;;;1999.90;999.90;;;;;;;34.27;83.90;95494.44;5007246;28;20203;-60
2023/08/18 08:48:28;;;;;;;1999.90;999.90;;;;;;;34.08;87.54;95503.19;5007139;28;20234;-60
2023/08/18 08:50:58;;;;;;;1999.90;999.90;;;;;;;33.32;89.56;95504.53;5007231;28;20250;-60
2023/08/18 08:53:35;;;;;;;1999.90;999.90;;;;;;;33.17;91.09;95501.53;5007453;28;20279;-60
2023/08/18 08:56:02;;;;;;;1999.90;999.90;;;;;;;33.96;86.00;95504.78;5007127;28;20262;-59
2023/08/18 08:58:32;;;;;;;1999.90;999.90;;;;;;;33.12;92.23;95496.78;5006777;28;20216;-59
2023/08/18 09:01:02;;;;;;;1999.90;999.90;;;;;;;32.63;94.90;95495.75;5006731;28;20210;-59
2023/08/18 09:03:30;;;;;;;1999.90;999.90;;;;;;;32.44;94.58;95500.78;5007232;28;20274;-60
2023/08/18 09:05:55;;;;;;;1999.90;999.90;;;;;;;32.61;94.19;95498.38;5007043;28;20199;-60
2023/08/18 09:08:21;;;;;;;1999.90;999.90;;;;;;;32.39;97.44;95493.19;5006878;28;20203;-57
2023/08/18 09:10:47;;;;;;;1999.90;999.90;;;;;;;32.30;97.78;95490.75;5006625;28;20242;-58
2023/08/18 09:13:13;;;;;;;1999.90;999.90;;;;;;;32.76;91.91;95498.56;5007116;28;20195;-59
2023/08/18 09:15:45;;;;;;;1999.90;999.90;;;;;;;32.28;93.18;95498.25;5006808;28;20218;-59
2023/08/18 09:18:17;;;;;;;1999.90;999.90;;;;;;;33.30;91.59;95495.84;5006445;28;20215;-58
2023/08/18 09:20:44;;;;;;;1999.90;999.90;;;;;;;33.43;84.92;95495.78;5006548;28;20188;-58
2023/08/18 09:23:10;;;;;;;1999.90;999.90;;;;;;;34.13;83.19;95495.84;5006584;28;20242;-59
2023/08/18 09:25:35;;;;;;;1999.90;999.90;;;;;;;34.30;80.24;95487.66;5006338;28;20188;-59
2023/08/18 09:28:03;;;;;;;1999.90;999.90;;;;;;;34.78;75.97;95483.97;5006608;28;20247;-59
2023/08/18 09:30:30;;;;;;;1999.90;999.90;;;;;;;35.39;74.79;95485.75;5006502;28;20195;-59
2023/08/18 09:32:56;;;;;;;1999.90;999.90;;;;;;;34.90;77.27;95490.84;5006869;28;20271;-58
2023/08/18 09:35:21;;;;;;;1999.90;999.90;;;;;;;34.79;74.23;95488.31;5006264;28;20203;-59
2023/08/18 09:37:57;;;;;;;1999.90;999.90;;;;;;;34.92;75.11;95491.06;5006527;28;20204;-59
2023/08/18 09:40:24;;;;;;;1999.90;999.90;;;;;;;35.18;73.11;95485.81;5006504;28;20191;-60
2023/08/18 09:42:49;;;;;;;1999.90;999.90;;;;;;;35.28;74.39;95494.59;5006481;28;20218;-59
2023/08/18 09:45:15;;;;;;;1999.90;999.90;;;;;;;34.50;74.80;95489.69;5005235;28;20195;-59
2023/08/18 09:47:42;;;;;;;1999.90;999.90;;;;;;;34.53;76.16;95480.81;5005978;28;20195;-59
2023/08/18 09:50:10;;;;;;;1999.90;999.90;;;;;;;33.79;76.86;95496.69;5006079;28;20192;-59
2023/08/18 09:52:38;;;;;;;1999.90;999.90;;;;;;;34.50;74.31;95478.31;5006398;28;20191;-59
2023/08/18 09:55:18;;;;;;;1999.90;999.90;;;;;;;32.45;85.84;95481.75;5006028;28;20196;-59
2023/08/18 09:57:52;;;;;;;1999.90;999.90;;;;;;;33.02;79.65;95481.53;5005885;28;20191;-59
2023/08/18 10:00:19;;;;;;;1999.90;999.90;;;;;;;33.19;78.06;95479.09;5006135;28;20219;-59
2023/08/18 10:02:48;;;;;;;1999.90;999.90;;;;;;;34.76;67.22;95470.31;5005547;28;20195;-59
2023/08/18 10:05:14;;;;;;;1999.90;999.90;;;;;;;35.75;63.83;95472.88;5006061;28;20191;-59
2023/08/18 10:07:40;;;;;;;1999.90;999.90;;;;;;;34.43;68.23;95479.03;5005689;28;20199;-59
2023/08/18 10:10:08;;;;;;;1999.90;999.90;;;;;;;34.06;73.29;95485.19;5005887;28;20215;-59
2023/08/18 10:12:33;;;;;;;1999.90;999.90;;;;;;;33.20;78.12;95486.28;5005615;28;20242;-59
2023/08/18 10:15:00;;;;;;;1999.90;999.90;;;;;;;32.95;78.79;95470.91;5005423;28;20187;-59
2023/08/18 10:17:26;;;;;;;1999.90;999.90;;;;;;;33.08;81.44;95479.38;5006033;28;20195;-60
2023/08/18 10:19:56;;;;;;;1999.90;999.90;;;;;;;34.43;72.92;95476.19;5005470;28;20216;-59
2023/08/18 10:22:28;;;;;;;1999.90;999.90;;;;;;;33.17;76.89;95481.72;5005522;28;20195;-59
2023/08/18 10:24:54;;;;;;;1999.90;999.90;;;;;;;33.39;78.79;95484.03;5005460;28;20200;-59
2023/08/18 10:27:29;;;;;;;1999.90;999.90;;;;;;;34.25;74.89;95480.03;5005521;28;20176;-59
2023/08/18 10:30:02;;;;;;;1999.90;999.90;;;;;;;34.37;74.22;95475.63;5005236;28;20199;-59
2023/08/18 10:32:30;;;;;;;1999.90;999.90;;;;;;;34.29;67.94;95486.09;5005513;28;20196;-59
2023/08/18 10:35:27;;;;;;;1999.90;999.90;;;;;;;33.40;70.78;95482.72;5005477;28;20200;-59
2023/08/18 10:38:03;;;;;;;1999.90;999.90;;;;;;;34.43;67.13;95473.38;5005025;28;20243;-57
2023/08/18 10:40:31;;;;;;;1999.90;999.90;;;;;;;34.26;68.15;95479.47;5004704;28;20201;-57
2023/08/18 10:43:05;;;;;;;1999.90;999.90;;;;;;;34.91;63.62;95473.25;5005203;28;20229;-59
2023/08/18 10:45:31;;;;;;;1999.90;999.90;;;;;;;35.42;62.88;95471.13;5005280;28;20199;-57